sensor_id;sensor_type;location;lat;lon;timestamp;P1;durP1;ratioP1;P2;durP2;ratioP2
35444;SDS011;21562;49.476;6.086;2023-04-15T00:00:04;7.13;;;3.28;;
35444;SDS011;21562;49.476;6.086;2023-04-15T00:02:31;6.85;;;2.70;;
35444;SDS011;21562;49.476;6.086;2023-04-15T00:04:56;7.43;;;2.05;;
35444;SDS011;21562;49.476;6.086;2023-04-15T00:07:22;3.92;;;1.98;;
35444;SDS011;21562;49.476;6.086;2023-04-15T00:09:47;5.00;;;1.63;;
35444;SDS011;21562;49.476;6.086;2023-04-15T00:12:13;2.35;;;1.08;;
35444;SDS011;21562;49.476;6.086;2023-04-15T00:14:39;10.32;;;2.13;;
35444;SDS011;21562;49.476;6.086;2023-04-15T00:17:04;5.30;;;1.88;;
35444;SDS011;21562;49.476;6.086;2023-04-15T00:19:30;11.18;;;2.85;;
35444;SDS011;21562;49.476;6.086;2023-04-15T00:21:56;9.18;;;2.85;;
35444;SDS011;21562;49.476;6.086;2023-04-15T00:24:22;9.10;;;2.65;;
35444;SDS011;21562;49.476;6.086;2023-04-15T00:26:48;8.02;;;2.92;;
35444;SDS011;21562;49.476;6.086;2023-04-15T00:29:14;7.90;;;3.25;;
35444;SDS011;21562;49.476;6.086;2023-04-15T00:31:39;8.65;;;2.83;;
35444;SDS011;21562;49.476;6.086;2023-04-15T00:34:06;7.53;;;3.22;;
35444;SDS011;21562;49.476;6.086;2023-04-15T00:36:32;8.73;;;2.28;;
35444;SDS011;21562;49.476;6.086;2023-04-15T00:38:59;5.75;;;3.00;;
35444;SDS011;21562;49.476;6.086;2023-04-15T00:41:25;7.90;;;2.92;;
35444;SDS011;21562;49.476;6.086;2023-04-15T00:43:50;8.75;;;3.00;;
35444;SDS011;21562;49.476;6.086;2023-04-15T00:46:16;5.55;;;2.47;;
35444;SDS011;21562;49.476;6.086;2023-04-15T00:48:44;7.35;;;2.65;;
35444;SDS011;21562;49.476;6.086;2023-04-15T00:51:11;7.00;;;2.85;;
35444;SDS011;21562;49.476;6.086;2023-04-15T00:53:37;6.78;;;2.80;;
35444;SDS011;21562;49.476;6.086;2023-04-15T00:56:03;6.13;;;2.83;;
35444;SDS011;21562;49.476;6.086;2023-04-15T00:58:30;8.60;;;3.17;;
35444;SDS011;21562;49.476;6.086;2023-04-15T01:00:56;6.30;;;2.83;;
35444;SDS011;21562;49.476;6.086;2023-04-15T01:03:22;5.72;;;2.20;;
35444;SDS011;21562;49.476;6.086;2023-04-15T01:05:48;10.40;;;3.22;;
35444;SDS011;21562;49.476;6.086;2023-04-15T01:08:14;5.35;;;2.70;;
35444;SDS011;21562;49.476;6.086;2023-04-15T01:10:40;10.15;;;2.53;;
35444;SDS011;21562;49.476;6.086;2023-04-15T01:13:06;5.05;;;2.03;;
35444;SDS011;21562;49.476;6.086;2023-04-15T01:15:31;4.25;;;1.85;;
35444;SDS011;21562;49.476;6.086;2023-04-15T01:17:59;5.10;;;2.25;;
35444;SDS011;21562;49.476;6.086;2023-04-15T01:20:26;5.97;;;2.35;;
35444;SDS011;21562;49.476;6.086;2023-04-15T01:22:53;3.17;;;1.77;;
35444;SDS011;21562;49.476;6.086;2023-04-15T01:25:30;10.10;;;1.92;;
35444;SDS011;21562;49.476;6.086;2023-04-15T01:27:59;7.95;;;2.00;;
35444;SDS011;21562;49.476;6.086;2023-04-15T01:30:26;3.00;;;1.40;;
35444;SDS011;21562;49.476;6.086;2023-04-15T01:32:51;3.13;;;1.40;;
35444;SDS011;21562;49.476;6.086;2023-04-15T01:35:18;6.30;;;1.75;;
35444;SDS011;21562;49.476;6.086;2023-04-15T01:37:43;5.45;;;2.10;;
35444;SDS011;21562;49.476;6.086;2023-04-15T01:40:10;4.95;;;2.30;;
35444;SDS011;21562;49.476;6.086;2023-04-15T01:42:36;7.80;;;2.38;;
35444;SDS011;21562;49.476;6.086;2023-04-15T01:45:02;6.85;;;2.13;;
35444;SDS011;21562;49.476;6.086;2023-04-15T01:47:28;7.55;;;1.73;;
35444;SDS011;21562;49.476;6.086;2023-04-15T01:49:53;11.07;;;1.80;;
35444;SDS011;21562;49.476;6.086;2023-04-15T01:52:19;6.43;;;2.00;;
35444;SDS011;21562;49.476;6.086;2023-04-15T01:54:45;3.60;;;1.65;;
35444;SDS011;21562;49.476;6.086;2023-04-15T01:57:11;3.97;;;1.60;;
35444;SDS011;21562;49.476;6.086;2023-04-15T01:59:36;2.95;;;1.55;;
35444;SDS011;21562;49.476;6.086;2023-04-15T02:02:02;3.58;;;1.42;;
35444;SDS011;21562;49.476;6.086;2023-04-15T02:04:29;6.22;;;1.40;;
35444;SDS011;21562;49.476;6.086;2023-04-15T02:06:54;7.47;;;1.77;;
35444;SDS011;21562;49.476;6.086;2023-04-15T02:09:20;5.97;;;1.70;;
35444;SDS011;21562;49.476;6.086;2023-04-15T02:11:46;2.65;;;1.35;;
35444;SDS011;21562;49.476;6.086;2023-04-15T02:14:12;3.90;;;1.45;;
35444;SDS011;21562;49.476;6.086;2023-04-15T02:16:38;3.63;;;1.40;;
35444;SDS011;21562;49.476;6.086;2023-04-15T02:19:04;3.10;;;1.30;;
35444;SDS011;21562;49.476;6.086;2023-04-15T02:21:30;7.07;;;1.40;;
35444;SDS011;21562;49.476;6.086;2023-04-15T02:23:55;3.95;;;1.50;;
35444;SDS011;21562;49.476;6.086;2023-04-15T02:26:21;3.83;;;1.40;;
35444;SDS011;21562;49.476;6.086;2023-04-15T02:28:47;4.53;;;1.27;;
35444;SDS011;21562;49.476;6.086;2023-04-15T02:31:15;8.13;;;1.85;;
35444;SDS011;21562;49.476;6.086;2023-04-15T02:33:41;3.72;;;1.52;;
35444;SDS011;21562;49.476;6.086;2023-04-15T02:36:07;6.38;;;2.00;;
35444;SDS011;21562;49.476;6.086;2023-04-15T02:38:33;2.88;;;1.38;;
35444;SDS011;21562;49.476;6.086;2023-04-15T02:40:59;3.42;;;1.05;;
35444;SDS011;21562;49.476;6.086;2023-04-15T02:43:24;2.65;;;1.20;;
35444;SDS011;21562;49.476;6.086;2023-04-15T02:45:50;3.83;;;1.83;;
35444;SDS011;21562;49.476;6.086;2023-04-15T02:48:16;2.90;;;1.50;;
35444;SDS011;21562;49.476;6.086;2023-04-15T02:50:44;4.22;;;1.90;;
35444;SDS011;21562;49.476;6.086;2023-04-15T02:53:10;3.00;;;1.80;;
35444;SDS011;21562;49.476;6.086;2023-04-15T02:55:37;3.58;;;1.85;;
35444;SDS011;21562;49.476;6.086;2023-04-15T02:58:03;4.75;;;1.40;;
35444;SDS011;21562;49.476;6.086;2023-04-15T03:00:28;7.68;;;1.50;;
35444;SDS011;21562;49.476;6.086;2023-04-15T03:02:58;2.67;;;1.23;;
35444;SDS011;21562;49.476;6.086;2023-04-15T03:05:26;6.10;;;1.52;;
35444;SDS011;21562;49.476;6.086;2023-04-15T03:07:52;7.38;;;1.63;;
35444;SDS011;21562;49.476;6.086;2023-04-15T03:10:18;2.97;;;1.45;;
35444;SDS011;21562;49.476;6.086;2023-04-15T03:12:44;8.95;;;1.95;;
35444;SDS011;21562;49.476;6.086;2023-04-15T03:15:10;4.68;;;1.33;;
35444;SDS011;21562;49.476;6.086;2023-04-15T03:17:36;4.03;;;1.98;;
35444;SDS011;21562;49.476;6.086;2023-04-15T03:20:02;4.07;;;1.83;;
35444;SDS011;21562;49.476;6.086;2023-04-15T03:22:29;4.85;;;1.70;;
35444;SDS011;21562;49.476;6.086;2023-04-15T03:24:55;6.20;;;1.35;;
35444;SDS011;21562;49.476;6.086;2023-04-15T03:27:21;5.75;;;1.73;;
35444;SDS011;21562;49.476;6.086;2023-04-15T03:29:47;4.28;;;1.58;;
35444;SDS011;21562;49.476;6.086;2023-04-15T03:32:12;5.57;;;1.33;;
35444;SDS011;21562;49.476;6.086;2023-04-15T03:34:39;6.70;;;1.60;;
35444;SDS011;21562;49.476;6.086;2023-04-15T03:37:06;4.47;;;1.70;;
35444;SDS011;21562;49.476;6.086;2023-04-15T03:39:31;2.22;;;1.35;;
35444;SDS011;21562;49.476;6.086;2023-04-15T03:41:57;2.97;;;1.48;;
35444;SDS011;21562;49.476;6.086;2023-04-15T03:44:24;3.25;;;1.33;;
35444;SDS011;21562;49.476;6.086;2023-04-15T03:46:50;5.78;;;1.73;;
35444;SDS011;21562;49.476;6.086;2023-04-15T03:49:16;4.10;;;1.77;;
35444;SDS011;21562;49.476;6.086;2023-04-15T03:51:43;2.58;;;1.40;;
35444;SDS011;21562;49.476;6.086;2023-04-15T03:54:09;1.98;;;1.27;;
35444;SDS011;21562;49.476;6.086;2023-04-15T03:56:35;5.32;;;1.50;;
35444;SDS011;21562;49.476;6.086;2023-04-15T03:59:01;3.00;;;1.30;;
35444;SDS011;21562;49.476;6.086;2023-04-15T04:01:27;3.55;;;1.60;;
35444;SDS011;21562;49.476;6.086;2023-04-15T04:03:52;7.72;;;1.75;;
35444;SDS011;21562;49.476;6.086;2023-04-15T04:06:18;4.38;;;1.77;;
35444;SDS011;21562;49.476;6.086;2023-04-15T04:08:44;5.68;;;2.60;;
35444;SDS011;21562;49.476;6.086;2023-04-15T04:11:10;4.57;;;2.28;;
35444;SDS011;21562;49.476;6.086;2023-04-15T04:13:35;6.85;;;3.40;;
35444;SDS011;21562;49.476;6.086;2023-04-15T04:16:01;9.27;;;3.97;;
35444;SDS011;21562;49.476;6.086;2023-04-15T04:18:28;16.10;;;5.10;;
35444;SDS011;21562;49.476;6.086;2023-04-15T04:20:55;22.42;;;6.30;;
35444;SDS011;21562;49.476;6.086;2023-04-15T04:23:21;21.25;;;6.53;;
35444;SDS011;21562;49.476;6.086;2023-04-15T04:25:46;16.17;;;5.20;;
35444;SDS011;21562;49.476;6.086;2023-04-15T04:28:12;13.43;;;5.35;;
35444;SDS011;21562;49.476;6.086;2023-04-15T04:30:38;14.70;;;4.40;;
35444;SDS011;21562;49.476;6.086;2023-04-15T04:33:04;10.02;;;3.63;;
35444;SDS011;21562;49.476;6.086;2023-04-15T04:35:31;9.43;;;2.83;;
35444;SDS011;21562;49.476;6.086;2023-04-15T04:37:59;5.40;;;2.10;;
35444;SDS011;21562;49.476;6.086;2023-04-15T04:40:25;6.63;;;2.67;;
35444;SDS011;21562;49.476;6.086;2023-04-15T04:42:51;4.15;;;2.33;;
35444;SDS011;21562;49.476;6.086;2023-04-15T04:45:17;7.15;;;2.15;;
35444;SDS011;21562;49.476;6.086;2023-04-15T04:47:43;10.82;;;1.60;;
35444;SDS011;21562;49.476;6.086;2023-04-15T04:50:09;6.43;;;1.60;;
35444;SDS011;21562;49.476;6.086;2023-04-15T04:52:35;4.28;;;1.83;;
35444;SDS011;21562;49.476;6.086;2023-04-15T04:55:01;10.80;;;2.15;;
35444;SDS011;21562;49.476;6.086;2023-04-15T04:57:27;9.77;;;1.98;;
35444;SDS011;21562;49.476;6.086;2023-04-15T04:59:52;6.95;;;2.20;;
35444;SDS011;21562;49.476;6.086;2023-04-15T05:02:18;6.85;;;2.05;;
35444;SDS011;21562;49.476;6.086;2023-04-15T05:04:44;7.10;;;2.25;;
35444;SDS011;21562;49.476;6.086;2023-04-15T05:07:09;3.65;;;1.67;;
35444;SDS011;21562;49.476;6.086;2023-04-15T05:09:35;8.60;;;2.00;;
35444;SDS011;21562;49.476;6.086;2023-04-15T05:12:01;4.28;;;1.70;;
35444;SDS011;21562;49.476;6.086;2023-04-15T05:14:30;6.80;;;2.00;;
35444;SDS011;21562;49.476;6.086;2023-04-15T05:16:56;4.40;;;1.45;;
35444;SDS011;21562;49.476;6.086;2023-04-15T05:19:21;5.32;;;1.63;;
35444;SDS011;21562;49.476;6.086;2023-04-15T05:21:47;6.00;;;1.92;;
35444;SDS011;21562;49.476;6.086;2023-04-15T05:24:13;13.18;;;5.13;;
35444;SDS011;21562;49.476;6.086;2023-04-15T05:26:38;7.43;;;3.20;;
35444;SDS011;21562;49.476;6.086;2023-04-15T05:29:04;11.25;;;2.45;;
35444;SDS011;21562;49.476;6.086;2023-04-15T05:31:29;6.82;;;2.05;;
35444;SDS011;21562;49.476;6.086;2023-04-15T05:33:55;10.30;;;2.65;;
35444;SDS011;21562;49.476;6.086;2023-04-15T05:36:21;4.05;;;1.92;;
35444;SDS011;21562;49.476;6.086;2023-04-15T05:38:46;7.68;;;2.17;;
35444;SDS011;21562;49.476;6.086;2023-04-15T05:41:12;8.90;;;1.77;;
35444;SDS011;21562;49.476;6.086;2023-04-15T05:43:39;7.20;;;2.05;;
35444;SDS011;21562;49.476;6.086;2023-04-15T05:46:05;7.50;;;1.67;;
35444;SDS011;21562;49.476;6.086;2023-04-15T05:48:32;7.35;;;2.00;;
35444;SDS011;21562;49.476;6.086;2023-04-15T05:50:58;9.48;;;2.85;;
35444;SDS011;21562;49.476;6.086;2023-04-15T05:53:24;11.23;;;2.88;;
35444;SDS011;21562;49.476;6.086;2023-04-15T05:55:50;8.15;;;2.38;;
35444;SDS011;21562;49.476;6.086;2023-04-15T05:58:15;21.02;;;3.45;;
35444;SDS011;21562;49.476;6.086;2023-04-15T06:00:41;7.28;;;2.30;;
35444;SDS011;21562;49.476;6.086;2023-04-15T06:03:07;18.35;;;2.80;;
35444;SDS011;21562;49.476;6.086;2023-04-15T06:05:33;7.47;;;2.42;;
35444;SDS011;21562;49.476;6.086;2023-04-15T06:07:59;6.45;;;2.00;;
35444;SDS011;21562;49.476;6.086;2023-04-15T06:10:24;6.03;;;2.30;;
35444;SDS011;21562;49.476;6.086;2023-04-15T06:12:51;6.18;;;1.80;;
35444;SDS011;21562;49.476;6.086;2023-04-15T06:15:17;7.88;;;2.05;;
35444;SDS011;21562;49.476;6.086;2023-04-15T06:17:43;8.05;;;2.42;;
35444;SDS011;21562;49.476;6.086;2023-04-15T06:20:09;7.00;;;2.10;;
35444;SDS011;21562;49.476;6.086;2023-04-15T06:22:36;8.95;;;1.95;;
35444;SDS011;21562;49.476;6.086;2023-04-15T06:25:03;6.40;;;2.13;;
35444;SDS011;21562;49.476;6.086;2023-04-15T06:27:29;8.55;;;2.13;;
35444;SDS011;21562;49.476;6.086;2023-04-15T06:29:55;4.78;;;1.73;;
35444;SDS011;21562;49.476;6.086;2023-04-15T06:32:20;7.22;;;2.47;;
35444;SDS011;21562;49.476;6.086;2023-04-15T06:34:46;6.03;;;1.95;;
35444;SDS011;21562;49.476;6.086;2023-04-15T06:37:11;8.13;;;2.40;;
35444;SDS011;21562;49.476;6.086;2023-04-15T06:39:40;5.05;;;2.15;;
35444;SDS011;21562;49.476;6.086;2023-04-15T06:42:06;6.95;;;1.60;;
35444;SDS011;21562;49.476;6.086;2023-04-15T06:44:33;4.60;;;1.60;;
35444;SDS011;21562;49.476;6.086;2023-04-15T06:46:59;4.28;;;1.33;;
35444;SDS011;21562;49.476;6.086;2023-04-15T06:49:25;4.47;;;1.52;;
35444;SDS011;21562;49.476;6.086;2023-04-15T06:51:50;5.43;;;1.65;;
35444;SDS011;21562;49.476;6.086;2023-04-15T06:54:16;10.63;;;2.40;;
35444;SDS011;21562;49.476;6.086;2023-04-15T06:56:42;11.70;;;1.98;;
35444;SDS011;21562;49.476;6.086;2023-04-15T06:59:08;10.27;;;1.85;;
35444;SDS011;21562;49.476;6.086;2023-04-15T07:01:33;7.57;;;2.40;;
35444;SDS011;21562;49.476;6.086;2023-04-15T07:03:59;11.48;;;2.15;;
35444;SDS011;21562;49.476;6.086;2023-04-15T07:06:25;7.63;;;2.00;;
35444;SDS011;21562;49.476;6.086;2023-04-15T07:08:51;13.45;;;2.08;;
35444;SDS011;21562;49.476;6.086;2023-04-15T07:11:18;6.30;;;1.77;;
35444;SDS011;21562;49.476;6.086;2023-04-15T07:13:44;7.07;;;2.00;;
35444;SDS011;21562;49.476;6.086;2023-04-15T07:16:10;6.53;;;1.85;;
35444;SDS011;21562;49.476;6.086;2023-04-15T07:18:36;5.80;;;1.63;;
35444;SDS011;21562;49.476;6.086;2023-04-15T07:21:01;7.57;;;1.30;;
35444;SDS011;21562;49.476;6.086;2023-04-15T07:23:27;8.15;;;2.00;;
35444;SDS011;21562;49.476;6.086;2023-04-15T07:25:53;11.95;;;2.78;;
35444;SDS011;21562;49.476;6.086;2023-04-15T07:28:19;6.45;;;1.77;;
35444;SDS011;21562;49.476;6.086;2023-04-15T07:30:45;8.23;;;2.30;;
35444;SDS011;21562;49.476;6.086;2023-04-15T07:33:10;8.68;;;2.70;;
35444;SDS011;21562;49.476;6.086;2023-04-15T07:35:36;12.75;;;2.47;;
35444;SDS011;21562;49.476;6.086;2023-04-15T07:38:02;5.35;;;1.50;;
35444;SDS011;21562;49.476;6.086;2023-04-15T07:40:27;7.97;;;1.55;;
35444;SDS011;21562;49.476;6.086;2023-04-15T07:42:54;5.72;;;2.97;;
35444;SDS011;21562;49.476;6.086;2023-04-15T07:45:21;9.57;;;3.60;;
35444;SDS011;21562;49.476;6.086;2023-04-15T07:47:46;22.98;;;9.85;;
35444;SDS011;21562;49.476;6.086;2023-04-15T07:50:12;13.20;;;6.30;;
35444;SDS011;21562;49.476;6.086;2023-04-15T07:52:38;9.13;;;2.75;;
35444;SDS011;21562;49.476;6.086;2023-04-15T07:55:07;7.30;;;1.77;;
35444;SDS011;21562;49.476;6.086;2023-04-15T07:57:33;16.17;;;6.68;;
35444;SDS011;21562;49.476;6.086;2023-04-15T07:59:59;23.83;;;11.27;;
35444;SDS011;21562;49.476;6.086;2023-04-15T08:02:27;18.00;;;9.00;;
35444;SDS011;21562;49.476;6.086;2023-04-15T08:04:52;23.23;;;7.47;;
35444;SDS011;21562;49.476;6.086;2023-04-15T08:07:18;17.73;;;5.50;;
35444;SDS011;21562;49.476;6.086;2023-04-15T08:09:44;8.80;;;4.40;;
35444;SDS011;21562;49.476;6.086;2023-04-15T08:12:10;8.85;;;3.33;;
35444;SDS011;21562;49.476;6.086;2023-04-15T08:14:37;7.18;;;2.67;;
35444;SDS011;21562;49.476;6.086;2023-04-15T08:17:03;8.23;;;2.30;;
35444;SDS011;21562;49.476;6.086;2023-04-15T08:19:29;7.40;;;2.03;;
35444;SDS011;21562;49.476;6.086;2023-04-15T08:21:55;12.13;;;2.55;;
35444;SDS011;21562;49.476;6.086;2023-04-15T08:24:21;12.88;;;3.13;;
35444;SDS011;21562;49.476;6.086;2023-04-15T08:26:48;10.90;;;4.13;;
35444;SDS011;21562;49.476;6.086;2023-04-15T08:29:13;31.38;;;15.43;;
35444;SDS011;21562;49.476;6.086;2023-04-15T08:31:40;12.20;;;5.03;;
35444;SDS011;21562;49.476;6.086;2023-04-15T08:34:05;12.30;;;3.72;;
35444;SDS011;21562;49.476;6.086;2023-04-15T08:36:31;8.45;;;2.90;;
35444;SDS011;21562;49.476;6.086;2023-04-15T08:38:57;10.07;;;2.92;;
35444;SDS011;21562;49.476;6.086;2023-04-15T08:41:25;5.13;;;1.58;;
35444;SDS011;21562;49.476;6.086;2023-04-15T08:43:57;7.15;;;2.30;;
35444;SDS011;21562;49.476;6.086;2023-04-15T08:46:27;8.30;;;2.53;;
35444;SDS011;21562;49.476;6.086;2023-04-15T08:48:55;5.68;;;2.22;;
35444;SDS011;21562;49.476;6.086;2023-04-15T08:51:21;5.95;;;1.80;;
35444;SDS011;21562;49.476;6.086;2023-04-15T08:53:47;5.10;;;2.00;;
35444;SDS011;21562;49.476;6.086;2023-04-15T08:56:14;11.35;;;2.20;;
35444;SDS011;21562;49.476;6.086;2023-04-15T08:58:43;8.40;;;2.00;;
35444;SDS011;21562;49.476;6.086;2023-04-15T09:01:10;9.82;;;1.75;;
35444;SDS011;21562;49.476;6.086;2023-04-15T09:03:37;9.23;;;1.92;;
35444;SDS011;21562;49.476;6.086;2023-04-15T09:06:04;6.88;;;1.75;;
35444;SDS011;21562;49.476;6.086;2023-04-15T09:08:30;11.68;;;3.42;;
35444;SDS011;21562;49.476;6.086;2023-04-15T09:10:56;6.45;;;1.85;;
35444;SDS011;21562;49.476;6.086;2023-04-15T09:13:22;3.85;;;1.45;;
35444;SDS011;21562;49.476;6.086;2023-04-15T09:15:47;5.18;;;2.03;;
35444;SDS011;21562;49.476;6.086;2023-04-15T09:18:25;7.82;;;2.50;;
35444;SDS011;21562;49.476;6.086;2023-04-15T09:20:52;6.82;;;1.60;;
35444;SDS011;21562;49.476;6.086;2023-04-15T09:23:18;12.50;;;3.30;;
35444;SDS011;21562;49.476;6.086;2023-04-15T09:25:44;6.68;;;2.70;;
35444;SDS011;21562;49.476;6.086;2023-04-15T09:28:10;8.90;;;1.85;;
35444;SDS011;21562;49.476;6.086;2023-04-15T09:30:36;7.50;;;2.53;;
35444;SDS011;21562;49.476;6.086;2023-04-15T09:33:02;9.73;;;2.03;;
35444;SDS011;21562;49.476;6.086;2023-04-15T09:35:32;5.45;;;1.42;;
35444;SDS011;21562;49.476;6.086;2023-04-15T09:40:39;9.93;;;2.60;;
35444;SDS011;21562;49.476;6.086;2023-04-15T09:43:06;6.00;;;1.25;;
35444;SDS011;21562;49.476;6.086;2023-04-15T09:45:33;8.30;;;1.90;;
35444;SDS011;21562;49.476;6.086;2023-04-15T09:48:16;6.03;;;1.65;;
35444;SDS011;21562;49.476;6.086;2023-04-15T09:50:47;6.30;;;1.30;;
35444;SDS011;21562;49.476;6.086;2023-04-15T09:53:17;6.32;;;1.52;;
35444;SDS011;21562;49.476;6.086;2023-04-15T09:55:51;5.93;;;1.67;;
35444;SDS011;21562;49.476;6.086;2023-04-15T09:58:22;6.53;;;1.67;;
35444;SDS011;21562;49.476;6.086;2023-04-15T10:00:55;8.38;;;1.60;;
35444;SDS011;21562;49.476;6.086;2023-04-15T10:03:26;6.38;;;1.45;;
35444;SDS011;21562;49.476;6.086;2023-04-15T10:05:58;7.65;;;1.80;;
35444;SDS011;21562;49.476;6.086;2023-04-15T10:08:26;24.42;;;11.82;;
35444;SDS011;21562;49.476;6.086;2023-04-15T10:10:53;25.90;;;13.40;;
35444;SDS011;21562;49.476;6.086;2023-04-15T10:13:23;26.88;;;16.42;;
35444;SDS011;21562;49.476;6.086;2023-04-15T10:15:57;33.42;;;15.65;;
35444;SDS011;21562;49.476;6.086;2023-04-15T10:18:26;12.82;;;4.13;;
35444;SDS011;21562;49.476;6.086;2023-04-15T10:20:52;11.20;;;1.55;;
35444;SDS011;21562;49.476;6.086;2023-04-15T10:23:19;3.85;;;1.10;;
35444;SDS011;21562;49.476;6.086;2023-04-15T10:25:46;20.10;;;1.83;;
35444;SDS011;21562;49.476;6.086;2023-04-15T10:28:17;6.90;;;1.33;;
35444;SDS011;21562;49.476;6.086;2023-04-15T10:30:44;4.10;;;1.25;;
35444;SDS011;21562;49.476;6.086;2023-04-15T10:33:11;4.00;;;1.40;;
35444;SDS011;21562;49.476;6.086;2023-04-15T10:35:38;4.93;;;1.15;;
35444;SDS011;21562;49.476;6.086;2023-04-15T10:40:54;10.68;;;2.55;;
35444;SDS011;21562;49.476;6.086;2023-04-15T10:43:46;6.00;;;1.33;;
35444;SDS011;21562;49.476;6.086;2023-04-15T10:49:00;6.63;;;1.55;;
35444;SDS011;21562;49.476;6.086;2023-04-15T10:51:41;5.30;;;1.15;;
35444;SDS011;21562;49.476;6.086;2023-04-15T10:56:50;3.70;;;0.95;;
35444;SDS011;21562;49.476;6.086;2023-04-15T10:59:16;4.35;;;0.90;;
35444;SDS011;21562;49.476;6.086;2023-04-15T11:01:52;4.45;;;1.20;;
35444;SDS011;21562;49.476;6.086;2023-04-15T11:10:06;14.90;;;4.18;;
35444;SDS011;21562;49.476;6.086;2023-04-15T11:12:59;10.13;;;1.50;;
35444;SDS011;21562;49.476;6.086;2023-04-15T11:15:33;3.17;;;0.80;;
35444;SDS011;21562;49.476;6.086;2023-04-15T11:18:08;4.53;;;1.55;;
35444;SDS011;21562;49.476;6.086;2023-04-15T11:20:41;5.85;;;1.40;;
35444;SDS011;21562;49.476;6.086;2023-04-15T11:26:10;5.35;;;1.00;;
35444;SDS011;21562;49.476;6.086;2023-04-15T11:28:36;5.90;;;1.55;;
35444;SDS011;21562;49.476;6.086;2023-04-15T11:31:11;3.75;;;0.98;;
35444;SDS011;21562;49.476;6.086;2023-04-15T11:33:38;2.47;;;1.00;;
35444;SDS011;21562;49.476;6.086;2023-04-15T11:36:10;3.45;;;1.35;;
35444;SDS011;21562;49.476;6.086;2023-04-15T11:38:36;3.13;;;1.08;;
35444;SDS011;21562;49.476;6.086;2023-04-15T11:41:06;3.83;;;1.23;;
35444;SDS011;21562;49.476;6.086;2023-04-15T11:43:32;3.60;;;0.98;;
35444;SDS011;21562;49.476;6.086;2023-04-15T11:46:00;5.38;;;1.50;;
35444;SDS011;21562;49.476;6.086;2023-04-15T11:48:27;6.20;;;1.60;;
35444;SDS011;21562;49.476;6.086;2023-04-15T11:50:56;9.07;;;1.45;;
35444;SDS011;21562;49.476;6.086;2023-04-15T11:58:47;3.40;;;1.00;;
35444;SDS011;21562;49.476;6.086;2023-04-15T12:01:17;4.38;;;0.80;;
35444;SDS011;21562;49.476;6.086;2023-04-15T12:03:46;6.25;;;1.50;;
35444;SDS011;21562;49.476;6.086;2023-04-15T12:06:22;9.07;;;1.52;;
35444;SDS011;21562;49.476;6.086;2023-04-15T12:09:08;5.13;;;1.17;;
35444;SDS011;21562;49.476;6.086;2023-04-15T12:11:45;5.07;;;1.00;;
35444;SDS011;21562;49.476;6.086;2023-04-15T12:17:00;7.82;;;1.30;;
35444;SDS011;21562;49.476;6.086;2023-04-15T12:19:36;7.38;;;1.60;;
35444;SDS011;21562;49.476;6.086;2023-04-15T12:22:13;7.57;;;1.35;;
35444;SDS011;21562;49.476;6.086;2023-04-15T12:24:41;8.10;;;1.13;;
35444;SDS011;21562;49.476;6.086;2023-04-15T12:27:11;5.75;;;1.25;;
35444;SDS011;21562;49.476;6.086;2023-04-15T12:29:39;4.18;;;1.08;;
35444;SDS011;21562;49.476;6.086;2023-04-15T12:32:06;2.22;;;0.98;;
35444;SDS011;21562;49.476;6.086;2023-04-15T12:34:37;4.65;;;1.27;;
35444;SDS011;21562;49.476;6.086;2023-04-15T12:37:07;8.90;;;1.50;;
35444;SDS011;21562;49.476;6.086;2023-04-15T12:39:35;5.90;;;1.17;;
35444;SDS011;21562;49.476;6.086;2023-04-15T12:42:02;2.65;;;0.90;;
35444;SDS011;21562;49.476;6.086;2023-04-15T12:44:29;4.68;;;1.17;;
35444;SDS011;21562;49.476;6.086;2023-04-15T12:46:55;5.60;;;1.17;;
35444;SDS011;21562;49.476;6.086;2023-04-15T12:49:21;3.72;;;1.20;;
35444;SDS011;21562;49.476;6.086;2023-04-15T12:51:49;4.25;;;1.13;;
35444;SDS011;21562;49.476;6.086;2023-04-15T12:54:16;7.43;;;1.33;;
35444;SDS011;21562;49.476;6.086;2023-04-15T12:56:42;10.25;;;1.55;;
35444;SDS011;21562;49.476;6.086;2023-04-15T12:59:08;3.42;;;1.23;;
35444;SDS011;21562;49.476;6.086;2023-04-15T13:01:34;9.32;;;1.70;;
35444;SDS011;21562;49.476;6.086;2023-04-15T13:04:00;4.25;;;1.20;;
35444;SDS011;21562;49.476;6.086;2023-04-15T13:06:26;6.68;;;1.90;;
35444;SDS011;21562;49.476;6.086;2023-04-15T13:08:53;5.63;;;1.40;;
35444;SDS011;21562;49.476;6.086;2023-04-15T13:11:19;4.82;;;1.20;;
35444;SDS011;21562;49.476;6.086;2023-04-15T13:13:46;5.40;;;1.55;;
35444;SDS011;21562;49.476;6.086;2023-04-15T13:16:12;4.07;;;1.25;;
35444;SDS011;21562;49.476;6.086;2023-04-15T13:18:37;6.30;;;1.90;;
35444;SDS011;21562;49.476;6.086;2023-04-15T13:21:03;3.70;;;1.40;;
35444;SDS011;21562;49.476;6.086;2023-04-15T13:23:31;3.00;;;1.00;;
35444;SDS011;21562;49.476;6.086;2023-04-15T13:25:57;8.50;;;3.00;;
35444;SDS011;21562;49.476;6.086;2023-04-15T13:28:23;7.20;;;1.25;;
35444;SDS011;21562;49.476;6.086;2023-04-15T13:30:48;6.30;;;1.70;;
35444;SDS011;21562;49.476;6.086;2023-04-15T13:33:15;3.63;;;1.55;;
35444;SDS011;21562;49.476;6.086;2023-04-15T13:35:41;5.05;;;1.20;;
35444;SDS011;21562;49.476;6.086;2023-04-15T13:38:07;9.95;;;1.52;;
35444;SDS011;21562;49.476;6.086;2023-04-15T13:40:32;4.15;;;1.20;;
35444;SDS011;21562;49.476;6.086;2023-04-15T13:42:58;4.50;;;1.63;;
35444;SDS011;21562;49.476;6.086;2023-04-15T13:45:24;5.82;;;1.88;;
35444;SDS011;21562;49.476;6.086;2023-04-15T13:47:50;5.05;;;1.50;;
35444;SDS011;21562;49.476;6.086;2023-04-15T13:50:16;7.70;;;1.63;;
35444;SDS011;21562;49.476;6.086;2023-04-15T13:52:42;3.90;;;1.30;;
35444;SDS011;21562;49.476;6.086;2023-04-15T13:55:08;4.57;;;1.20;;
35444;SDS011;21562;49.476;6.086;2023-04-15T13:57:34;8.45;;;1.52;;
35444;SDS011;21562;49.476;6.086;2023-04-15T14:00:00;6.13;;;1.30;;
35444;SDS011;21562;49.476;6.086;2023-04-15T14:02:26;4.35;;;1.42;;
35444;SDS011;21562;49.476;6.086;2023-04-15T14:04:52;2.35;;;1.20;;
35444;SDS011;21562;49.476;6.086;2023-04-15T14:07:17;4.93;;;1.17;;
35444;SDS011;21562;49.476;6.086;2023-04-15T14:09:43;3.58;;;1.20;;
35444;SDS011;21562;49.476;6.086;2023-04-15T14:12:09;4.13;;;1.40;;
35444;SDS011;21562;49.476;6.086;2023-04-15T14:14:35;5.88;;;1.50;;
35444;SDS011;21562;49.476;6.086;2023-04-15T14:17:01;3.72;;;1.08;;
35444;SDS011;21562;49.476;6.086;2023-04-15T14:19:28;11.43;;;1.63;;
35444;SDS011;21562;49.476;6.086;2023-04-15T14:21:55;3.63;;;1.63;;
35444;SDS011;21562;49.476;6.086;2023-04-15T14:24:20;4.95;;;1.60;;
35444;SDS011;21562;49.476;6.086;2023-04-15T14:26:46;5.93;;;1.70;;
35444;SDS011;21562;49.476;6.086;2023-04-15T14:29:12;4.38;;;1.23;;
35444;SDS011;21562;49.476;6.086;2023-04-15T14:31:38;5.07;;;1.42;;
35444;SDS011;21562;49.476;6.086;2023-04-15T14:34:03;1.90;;;1.23;;
35444;SDS011;21562;49.476;6.086;2023-04-15T14:36:30;4.20;;;1.15;;
35444;SDS011;21562;49.476;6.086;2023-04-15T14:38:56;3.90;;;1.77;;
35444;SDS011;21562;49.476;6.086;2023-04-15T14:41:22;3.53;;;1.00;;
35444;SDS011;21562;49.476;6.086;2023-04-15T14:43:48;6.10;;;1.88;;
35444;SDS011;21562;49.476;6.086;2023-04-15T14:46:13;4.55;;;1.60;;
35444;SDS011;21562;49.476;6.086;2023-04-15T14:48:39;3.80;;;1.45;;
35444;SDS011;21562;49.476;6.086;2023-04-15T14:51:05;3.35;;;1.17;;
35444;SDS011;21562;49.476;6.086;2023-04-15T14:53:31;2.17;;;1.00;;
35444;SDS011;21562;49.476;6.086;2023-04-15T14:55:56;2.92;;;0.75;;
35444;SDS011;21562;49.476;6.086;2023-04-15T14:58:22;4.13;;;1.17;;
35444;SDS011;21562;49.476;6.086;2023-04-15T15:00:48;6.65;;;2.03;;
35444;SDS011;21562;49.476;6.086;2023-04-15T15:03:13;4.30;;;1.50;;
35444;SDS011;21562;49.476;6.086;2023-04-15T15:05:40;5.05;;;1.20;;
35444;SDS011;21562;49.476;6.086;2023-04-15T15:08:06;2.25;;;1.30;;
35444;SDS011;21562;49.476;6.086;2023-04-15T15:10:33;4.68;;;1.40;;